createdAt,value
2019-03-06T00:01:07.859Z,97783.52
2019-03-06T00:03:39.863Z,97774.64
2019-03-06T00:06:16.781Z,97774.06
2019-03-06T00:08:45.801Z,97772.09
2019-03-06T00:11:17.786Z,97783.91
2019-03-06T00:13:49.827Z,97779.48
2019-03-06T00:16:21.829Z,97783.95
2019-03-06T00:18:53.812Z,97782.98
2019-03-06T00:21:25.834Z,97777.56
2019-03-06T00:23:57.810Z,97778.44
2019-03-06T00:26:29.938Z,97779.04
2019-03-06T00:29:01.948Z,97774.23
2019-03-06T00:31:33.924Z,97768.19
2019-03-06T00:34:05.900Z,97764.91
2019-03-06T00:36:37.892Z,97767.78
2019-03-06T00:39:10.137Z,97762.58
2019-03-06T00:41:47.350Z,97766.78
2019-03-06T00:44:19.326Z,97760.70
2019-03-06T00:46:51.324Z,97763.28
2019-03-06T00:49:23.306Z,97765.00
2019-03-06T00:51:55.731Z,97765.48
2019-03-06T00:54:27.669Z,97762.73
2019-03-06T00:56:59.678Z,97760.45
2019-03-06T00:59:31.633Z,97754.50
2019-03-06T01:02:04.145Z,97761.27
2019-03-06T01:04:36.123Z,97760.22
2019-03-06T01:07:08.129Z,97762.76
2019-03-06T01:09:40.092Z,97762.02
2019-03-06T01:12:12.393Z,97758.50
2019-03-06T01:14:44.374Z,97758.75
2019-03-06T01:17:16.337Z,97750.12
2019-03-06T01:19:48.341Z,97739.50
2019-03-06T01:22:20.336Z,97743.94
2019-03-06T01:24:52.292Z,97743.33
2019-03-06T01:27:24.302Z,97738.91
2019-03-06T01:29:56.251Z,97737.34
2019-03-06T01:32:28.334Z,97733.12
2019-03-06T01:35:18.529Z,97729.13
2019-03-06T01:38:08.942Z,97729.33
2019-03-06T01:40:59.391Z,97716.41
2019-03-06T01:43:36.279Z,97708.45
2019-03-06T01:46:08.265Z,97710.38
2019-03-06T01:48:40.511Z,97704.95
2019-03-06T01:51:12.452Z,97707.22
2019-03-06T01:53:44.459Z,97699.10
2019-03-06T01:56:16.402Z,97699.87
2019-03-06T01:58:48.392Z,97696.08
2019-03-06T02:01:20.392Z,97693.16
2019-03-06T02:03:52.384Z,97683.68
2019-03-06T02:06:24.388Z,97683.37
2019-03-06T02:08:56.381Z,97690.83
2019-03-06T02:11:28.340Z,97696.18
2019-03-06T02:14:00.340Z,97692.33
2019-03-06T02:16:32.500Z,97685.82
2019-03-06T02:19:04.527Z,97691.84
2019-03-06T02:21:36.496Z,97694.84
2019-03-06T02:24:08.474Z,97686.11
2019-03-06T02:26:40.746Z,97679.19
2019-03-06T02:29:12.727Z,97679.44
2019-03-06T02:31:44.680Z,97672.18
2019-03-06T02:34:16.660Z,97664.08
2019-03-06T02:36:48.843Z,97664.31
2019-03-06T02:39:20.825Z,97661.03
2019-03-06T02:41:52.767Z,97659.77
2019-03-06T02:44:24.748Z,97659.16
2019-03-06T02:46:56.728Z,97650.45
2019-03-06T02:49:28.740Z,97632.92
2019-03-06T02:52:00.726Z,97638.69
2019-03-06T02:54:32.697Z,97641.96
2019-03-06T02:57:04.639Z,97631.84
2019-03-06T03:00:05.349Z,97626.45
2019-03-06T03:02:55.299Z,97622.03
2019-03-06T03:05:34.866Z,97629.00
2019-03-06T03:08:06.810Z,97623.09
2019-03-06T03:10:38.837Z,97631.31
2019-03-06T03:13:10.783Z,97633.34
2019-03-06T03:15:42.762Z,97623.48
2019-03-06T03:18:14.749Z,97622.34
2019-03-06T03:20:46.696Z,97621.48
2019-03-06T03:23:18.660Z,97619.55
2019-03-06T03:25:50.649Z,97620.62
2019-03-06T03:28:22.618Z,97618.83
2019-03-06T03:30:54.589Z,97617.34
2019-03-06T03:33:26.857Z,97610.27
2019-03-06T03:35:58.856Z,97603.19
2019-03-06T03:38:30.832Z,97606.48
2019-03-06T03:41:02.825Z,97608.34
2019-03-06T03:43:34.765Z,97597.63
2019-03-06T03:46:06.772Z,97598.38
2019-03-06T03:48:38.704Z,97600.95
2019-03-06T03:51:10.687Z,97594.89
2019-03-06T03:53:42.643Z,97593.33
2019-03-06T03:56:14.694Z,97597.59
2019-03-06T03:58:46.662Z,97592.04
2019-03-06T04:01:18.634Z,97595.11
2019-03-06T04:03:50.629Z,97597.12
2019-03-06T04:06:22.820Z,97602.41
2019-03-06T04:08:54.797Z,97603.91
2019-03-06T04:11:26.877Z,97594.98
2019-03-06T04:13:58.862Z,97599.94
2019-03-06T04:16:31.131Z,97605.77
2019-03-06T04:19:03.127Z,97612.05
2019-03-06T04:21:35.094Z,97613.83
2019-03-06T04:24:07.091Z,97622.16
2019-03-06T04:26:39.063Z,97622.16
2019-03-06T04:29:11.053Z,97615.75
2019-03-06T04:31:43.009Z,97615.10
2019-03-06T04:34:15.253Z,97613.45
2019-03-06T04:36:47.256Z,97618.45
2019-03-06T04:39:19.231Z,97616.59
2019-03-06T04:41:52.510Z,97611.69
2019-03-06T04:44:24.504Z,97604.85
2019-03-06T04:46:56.479Z,97604.22
2019-03-06T04:49:28.469Z,97611.56
2019-03-06T04:52:00.488Z,97613.46
2019-03-06T04:54:32.452Z,97614.00
2019-03-06T04:57:04.519Z,97618.80
2019-03-06T04:59:36.599Z,97617.55
2019-03-06T05:02:08.562Z,97613.38
2019-03-06T05:04:40.556Z,97612.64
2019-03-06T05:07:12.510Z,97604.58
2019-03-06T05:09:44.807Z,97599.52
2019-03-06T05:12:16.769Z,97597.00
2019-03-06T05:14:51.365Z,97590.69
2019-03-06T05:17:33.331Z,97592.97
2019-03-06T05:20:05.383Z,97585.39
2019-03-06T05:22:37.361Z,97578.59
2019-03-06T05:25:09.366Z,97565.96
2019-03-06T05:27:41.352Z,97566.35
2019-03-06T05:30:14.154Z,97558.54
2019-03-06T05:32:46.558Z,97558.16
2019-03-06T05:36:03.396Z,97554.50
2019-03-06T05:38:43.082Z,97548.58
2019-03-06T05:41:15.040Z,97547.56
2019-03-06T05:43:47.001Z,97536.48
2019-03-06T05:46:19.020Z,97520.68
2019-03-06T05:48:50.981Z,97528.53
2019-03-06T05:51:22.969Z,97529.30
2019-03-06T05:53:54.949Z,97526.14
2019-03-06T05:56:26.976Z,97517.56
2019-03-06T05:58:59.010Z,97525.13
2019-03-06T06:01:30.987Z,97517.07
2019-03-06T06:04:03.147Z,97514.16
2019-03-06T06:06:35.153Z,97514.27
2019-03-06T06:09:07.120Z,97527.66
2019-03-06T06:11:39.147Z,97521.09
2019-03-06T06:14:11.118Z,97526.64
2019-03-06T06:16:43.099Z,97517.56
2019-03-06T06:19:15.087Z,97528.14
2019-03-06T06:22:12.968Z,97523.48
2019-03-06T06:24:44.954Z,97515.77
2019-03-06T06:27:16.960Z,97519.55
2019-03-06T06:29:49.122Z,97511.45
2019-03-06T06:32:21.105Z,97507.66
2019-03-06T06:34:53.076Z,97501.84
2019-03-06T06:37:25.173Z,97495.44
2019-03-06T06:39:57.520Z,97498.81
2019-03-06T06:42:29.494Z,97485.92
2019-03-06T06:45:01.449Z,97481.75
2019-03-06T06:47:33.488Z,97474.22
2019-03-06T06:50:05.724Z,97476.05
2019-03-06T06:53:10.140Z,97473.58
2019-03-06T06:56:02.097Z,97465.88
2019-03-06T06:59:00.779Z,97461.59
2019-03-06T07:02:02.807Z,97458.05
2019-03-06T07:05:37.308Z,97455.80
2019-03-06T07:08:28.920Z,97449.33
2019-03-06T07:11:23.111Z,97449.64
2019-03-06T07:14:02.088Z,97442.03
2019-03-06T07:16:52.527Z,97436.28
2019-03-06T07:19:38.308Z,97446.12
2019-03-06T07:22:18.918Z,97446.36
2019-03-06T07:25:13.703Z,97448.14
2019-03-06T07:27:59.243Z,97453.25
2019-03-06T07:30:53.577Z,97448.48
2019-03-06T07:33:51.428Z,97450.59
2019-03-06T07:36:43.001Z,97438.19
2019-03-06T07:39:23.029Z,97436.16
2019-03-06T07:42:13.524Z,97428.73
2019-03-06T07:45:57.185Z,97428.52
2019-03-06T07:49:10.722Z,97428.52
2019-03-06T07:52:20.452Z,97432.09
2019-03-06T07:55:28.403Z,97429.27
2019-03-06T07:58:47.890Z,97415.33
2019-03-06T08:01:20.561Z,97413.43
2019-03-06T08:04:02.149Z,97404.84
2019-03-06T08:06:34.370Z,97397.86
2019-03-06T08:09:07.544Z,97398.76
2019-03-06T08:11:49.890Z,97395.27
2019-03-06T08:14:46.021Z,97392.75
2019-03-06T08:17:46.463Z,97389.37
2019-03-06T08:20:56.439Z,97388.19
2019-03-06T08:24:00.112Z,97383.94
2019-03-06T08:26:32.103Z,97386.05
2019-03-06T08:29:04.178Z,97384.29
2019-03-06T08:31:41.736Z,97379.41
2019-03-06T08:34:13.715Z,97373.84
2019-03-06T08:36:45.724Z,97369.09
2019-03-06T08:39:19.593Z,97376.54
2019-03-06T08:41:51.590Z,97382.72
2019-03-06T08:44:23.563Z,97380.48
2019-03-06T08:47:18.897Z,97381.09
2019-03-06T08:50:06.822Z,97360.72
2019-03-06T08:53:04.743Z,97361.70
2019-03-06T08:55:56.350Z,97353.30
2019-03-06T08:58:47.954Z,97356.84
2019-03-06T09:01:44.285Z,97352.04
2019-03-06T09:04:36.054Z,97354.95
2019-03-06T09:07:33.699Z,97343.09
2019-03-06T09:10:26.785Z,97335.55
2019-03-06T09:13:29.196Z,97342.41
2019-03-06T09:16:19.712Z,97331.71
2019-03-06T09:19:10.334Z,97340.34
2019-03-06T09:22:03.036Z,97336.62
2019-03-06T09:24:47.391Z,97326.80
2019-03-06T09:27:38.323Z,97332.20
2019-03-06T09:30:36.235Z,97319.90
2019-03-06T09:33:12.516Z,97310.93
2019-03-06T09:36:04.148Z,97313.40
2019-03-06T09:39:01.653Z,97306.51
2019-03-06T09:41:42.978Z,97308.33
2019-03-06T09:44:28.848Z,97307.97
2019-03-06T09:47:19.512Z,97302.92
2019-03-06T09:50:23.535Z,97303.78
2019-03-06T09:53:13.857Z,97297.38
2019-03-06T09:56:04.389Z,97288.33
2019-03-06T09:58:54.825Z,97287.70
2019-03-06T10:01:40.684Z,97274.75
2019-03-06T10:04:25.685Z,97267.42
2019-03-06T10:07:24.285Z,97261.25
2019-03-06T10:10:07.025Z,97251.88
2019-03-06T10:12:53.937Z,97245.61
2019-03-06T10:15:31.668Z,97246.83
2019-03-06T10:18:23.317Z,97237.66
2019-03-06T10:20:55.370Z,97237.20
2019-03-06T10:23:27.406Z,97244.60
2019-03-06T10:25:59.436Z,97243.80
2019-03-06T10:28:31.424Z,97248.45
2019-03-06T10:31:04.142Z,97242.03
2019-03-06T10:33:36.149Z,97234.52
2019-03-06T10:36:08.531Z,97231.13
2019-03-06T10:38:40.536Z,97220.72
2019-03-06T10:41:12.539Z,97219.33
2019-03-06T10:43:49.643Z,97210.23
2019-03-06T10:46:18.480Z,97198.50
2019-03-06T10:48:50.464Z,97197.23
2019-03-06T10:51:22.774Z,97202.81
2019-03-06T10:53:54.830Z,97195.42
2019-03-06T10:56:27.252Z,97202.00
2019-03-06T10:58:59.857Z,97199.67
2019-03-06T11:01:31.946Z,97197.78
2019-03-06T11:04:29.584Z,97192.20
2019-03-06T11:07:01.697Z,97192.22
2019-03-06T11:09:33.982Z,97174.09
2019-03-06T11:12:06.415Z,97167.98
2019-03-06T11:14:38.715Z,97166.29
2019-03-06T11:17:10.708Z,97154.05
2019-03-06T11:19:43.020Z,97173.95
2019-03-06T11:22:15.071Z,97158.45
2019-03-06T11:24:47.182Z,97151.51
2019-03-06T11:27:19.206Z,97153.78
2019-03-06T11:29:51.233Z,97143.52
2019-03-06T11:32:23.282Z,97127.27
2019-03-06T11:34:55.289Z,97139.05
2019-03-06T11:37:28.179Z,97129.94
2019-03-06T11:40:00.321Z,97127.95
2019-03-06T11:42:32.394Z,97125.71
2019-03-06T11:45:04.796Z,97125.26
2019-03-06T11:47:36.815Z,97119.52
2019-03-06T11:50:09.367Z,97110.17
2019-03-06T11:52:41.377Z,97095.81
2019-03-06T11:55:13.712Z,97098.22
2019-03-06T11:57:45.711Z,97086.05
2019-03-06T12:00:25.238Z,97081.42
2019-03-06T12:02:57.214Z,97080.69
2019-03-06T12:05:29.333Z,97086.24
2019-03-06T12:08:01.366Z,97074.91
2019-03-06T12:10:33.369Z,97063.80
2019-03-06T12:13:08.287Z,97060.17
2019-03-06T12:15:41.976Z,97056.96
2019-03-06T12:18:14.380Z,97053.08
2019-03-06T12:20:46.846Z,97053.77
2019-03-06T12:23:18.871Z,97049.92
2019-03-06T12:25:50.916Z,97042.84
2019-03-06T12:28:22.881Z,97033.67
2019-03-06T12:30:55.298Z,97030.50
2019-03-06T12:33:28.209Z,97017.05
2019-03-06T12:36:00.221Z,97015.50
2019-03-06T12:38:32.214Z,97012.49
2019-03-06T12:41:04.507Z,97010.72
2019-03-06T12:43:37.126Z,96998.79
2019-03-06T12:46:30.490Z,96997.01
2019-03-06T12:49:13.832Z,96990.31
2019-03-06T12:51:54.095Z,96981.06
2019-03-06T12:54:19.787Z,96965.26
2019-03-06T12:56:51.808Z,96956.06
2019-03-06T12:59:23.833Z,96958.78
2019-03-06T13:01:55.851Z,96960.52
2019-03-06T13:04:27.859Z,96958.67
2019-03-06T13:06:59.965Z,96950.56
2019-03-06T13:09:31.992Z,96935.67
2019-03-06T13:12:04.081Z,96938.58
2019-03-06T13:14:36.076Z,96935.22
2019-03-06T13:17:08.087Z,96924.55
2019-03-06T13:19:40.076Z,96923.73
2019-03-06T13:22:12.143Z,96905.09
2019-03-06T13:24:44.635Z,96908.89
2019-03-06T13:27:16.619Z,96897.26
2019-03-06T13:29:48.616Z,96887.49
2019-03-06T13:32:22.628Z,96895.88
2019-03-06T13:34:59.149Z,96888.16
2019-03-06T13:37:31.139Z,96875.15
2019-03-06T13:40:03.852Z,96875.52
2019-03-06T13:42:35.889Z,96881.53
2019-03-06T13:45:08.408Z,96885.59
2019-03-06T13:47:40.602Z,96868.52
2019-03-06T13:50:13.009Z,96872.99
2019-03-06T13:52:45.062Z,96865.38
2019-03-06T13:55:17.110Z,96862.89
2019-03-06T13:57:49.221Z,96861.25
2019-03-06T14:00:21.331Z,96866.75
2019-03-06T14:02:53.404Z,96856.46
2019-03-06T14:05:25.517Z,96859.33
2019-03-06T14:07:57.519Z,96863.44
2019-03-06T14:10:29.483Z,96860.94
2019-03-06T14:13:01.633Z,96858.36
2019-03-06T14:15:33.803Z,96861.39
2019-03-06T14:18:06.736Z,96852.23
2019-03-06T14:20:38.778Z,96859.22
2019-03-06T14:23:10.812Z,96853.28
2019-03-06T14:25:42.865Z,96843.20
2019-03-06T14:28:15.863Z,96837.52
2019-03-06T14:30:48.007Z,96841.32
2019-03-06T14:33:20.165Z,96824.22
2019-03-06T14:35:52.597Z,96829.98
2019-03-06T14:38:24.610Z,96822.92
2019-03-06T14:40:57.192Z,96816.86
2019-03-06T14:43:29.217Z,96821.19
2019-03-06T14:46:01.258Z,96820.41
2019-03-06T14:48:33.292Z,96814.88
2019-03-06T14:51:05.305Z,96811.95
2019-03-06T14:53:37.317Z,96805.27
2019-03-06T14:56:09.345Z,96802.20
2019-03-06T14:58:41.340Z,96805.46
2019-03-06T15:01:13.383Z,96800.35
2019-03-06T15:03:45.406Z,96806.38
2019-03-06T15:06:17.516Z,96791.78
2019-03-06T15:08:49.476Z,96808.45
2019-03-06T15:11:21.840Z,96801.34
2019-03-06T15:13:53.828Z,96793.44
2019-03-06T15:16:25.822Z,96799.63
2019-03-06T15:18:57.856Z,96793.94
2019-03-06T15:21:29.883Z,96784.63
2019-03-06T15:24:01.884Z,96792.34
2019-03-06T15:26:33.879Z,96782.16
2019-03-06T15:29:05.874Z,96785.23
2019-03-06T15:31:37.902Z,96791.04
2019-03-06T15:34:10.520Z,96784.36
2019-03-06T15:36:42.624Z,96787.38
2019-03-06T15:39:28.802Z,96778.84
2019-03-06T15:42:03.075Z,96772.00
2019-03-06T15:44:35.473Z,96772.59
2019-03-06T15:47:07.805Z,96776.61
2019-03-06T15:49:39.815Z,96775.10
2019-03-06T15:52:11.859Z,96767.70
2019-03-06T15:54:43.933Z,96772.09
2019-03-06T15:57:16.033Z,96769.25
2019-03-06T15:59:48.069Z,96778.38
2019-03-06T16:02:20.070Z,96769.25
2019-03-06T16:04:52.132Z,96760.09
2019-03-06T16:07:24.384Z,96765.39
2019-03-06T16:09:56.422Z,96765.19
2019-03-06T16:12:28.400Z,96760.92
2019-03-06T16:15:00.438Z,96761.83
2019-03-06T16:17:32.443Z,96749.84
2019-03-06T16:20:08.450Z,96749.94
2019-03-06T16:22:40.480Z,96748.20
2019-03-06T16:25:12.644Z,96746.34
2019-03-06T16:27:44.760Z,96740.07
2019-03-06T16:30:17.481Z,96739.98
2019-03-06T16:32:49.590Z,96739.97
2019-03-06T16:35:21.700Z,96737.01
2019-03-06T16:37:53.721Z,96732.02
2019-03-06T16:40:26.067Z,96728.16
2019-03-06T16:42:58.131Z,96729.78
2019-03-06T16:45:30.454Z,96727.72
2019-03-06T16:48:02.535Z,96728.98
2019-03-06T16:50:34.610Z,96724.70
2019-03-06T16:53:06.715Z,96731.70
2019-03-06T16:55:39.973Z,96732.48
2019-03-06T16:58:12.190Z,96728.87
2019-03-06T17:00:44.486Z,96731.47
2019-03-06T17:03:16.531Z,96743.50
2019-03-06T17:05:48.673Z,96750.88
2019-03-06T17:08:20.713Z,96746.95
2019-03-06T17:10:52.750Z,96745.84
2019-03-06T17:13:24.823Z,96745.66
2019-03-06T17:15:56.836Z,96743.46
2019-03-06T17:18:28.831Z,96739.35
2019-03-06T17:21:00.900Z,96741.58
2019-03-06T17:23:32.906Z,96737.98
2019-03-06T17:26:04.943Z,96732.27
2019-03-06T17:28:37.261Z,96732.95
2019-03-06T17:31:09.341Z,96733.02
2019-03-06T17:33:41.346Z,96728.34
2019-03-06T17:36:13.435Z,96725.74
2019-03-06T17:38:45.480Z,96716.16
2019-03-06T17:41:17.573Z,96720.90
2019-03-06T17:43:49.564Z,96727.81
2019-03-06T17:46:21.583Z,96730.11
2019-03-06T17:48:53.654Z,96719.20
2019-03-06T17:51:25.731Z,96720.60
2019-03-06T17:53:57.784Z,96725.94
2019-03-06T17:56:29.874Z,96721.20
2019-03-06T17:59:03.324Z,96724.23
2019-03-06T18:01:35.550Z,96723.13
2019-03-06T18:04:17.992Z,96708.37
2019-03-06T18:06:50.070Z,96710.94
2019-03-06T18:09:22.219Z,96713.45
2019-03-06T18:11:54.318Z,96716.05
2019-03-06T18:14:26.377Z,96720.31
2019-03-06T18:16:58.460Z,96720.02
2019-03-06T18:19:30.548Z,96719.11
2019-03-06T18:22:02.615Z,96708.52
2019-03-06T18:24:34.710Z,96692.38
2019-03-06T18:27:06.804Z,96672.27
2019-03-06T18:29:38.869Z,96672.59
2019-03-06T18:32:10.971Z,96670.99
2019-03-06T18:34:43.118Z,96667.52
2019-03-06T18:37:15.278Z,96673.80
2019-03-06T18:39:47.353Z,96655.46
2019-03-06T18:42:19.395Z,96656.66
2019-03-06T18:44:51.459Z,96645.54
2019-03-06T18:47:23.495Z,96633.82
2019-03-06T18:49:55.572Z,96635.53
2019-03-06T18:52:27.632Z,96626.80
2019-03-06T18:55:01.390Z,96622.14
2019-03-06T18:57:33.662Z,96616.39
2019-03-06T19:00:07.722Z,96623.30
2019-03-06T19:02:39.906Z,96621.46
2019-03-06T19:05:12.417Z,96618.27
2019-03-06T19:07:44.590Z,96613.16
2019-03-06T19:10:17.256Z,96615.56
2019-03-06T19:12:49.333Z,96610.45
2019-03-06T19:15:21.546Z,96601.89
2019-03-06T19:17:53.691Z,96601.89
2019-03-06T19:20:25.838Z,96600.47
2019-03-06T19:22:57.906Z,96588.11
2019-03-06T19:25:31.284Z,96589.61
2019-03-06T19:28:06.818Z,96587.17
2019-03-06T19:30:39.027Z,96585.59
2019-03-06T19:33:11.081Z,96597.27
2019-03-06T19:35:43.202Z,96597.27
2019-03-06T19:38:15.303Z,96599.63
2019-03-06T19:40:47.376Z,96602.92
2019-03-06T19:43:19.434Z,96600.31
2019-03-06T19:45:51.561Z,96599.33
2019-03-06T19:48:23.606Z,96610.81
2019-03-06T19:50:55.675Z,96605.01
2019-03-06T19:53:27.708Z,96597.69
2019-03-06T19:55:59.834Z,96605.95
2019-03-06T19:58:31.861Z,96598.72
2019-03-06T20:01:03.943Z,96596.78
2019-03-06T20:03:36.045Z,96602.43
2019-03-06T20:06:08.028Z,96595.48
2019-03-06T20:08:40.091Z,96597.42
2019-03-06T20:11:12.119Z,96585.78
2019-03-06T20:13:44.272Z,96587.88
2019-03-06T20:16:16.419Z,96574.92
2019-03-06T20:18:49.740Z,96555.31
2019-03-06T20:21:21.813Z,96563.37
2019-03-06T20:23:53.963Z,96553.28
2019-03-06T20:26:26.038Z,96542.26
2019-03-06T20:28:58.164Z,96535.97
2019-03-06T20:31:30.448Z,96524.20
2019-03-06T20:34:02.517Z,96520.56
2019-03-06T20:36:34.528Z,96520.09
2019-03-06T20:39:07.653Z,96508.88
2019-03-06T20:41:39.697Z,96516.48
2019-03-06T20:44:11.791Z,96511.38
2019-03-06T20:46:43.855Z,96510.77
2019-03-06T20:49:16.020Z,96503.95
2019-03-06T20:51:50.303Z,96497.77
2019-03-06T20:54:23.255Z,96498.55
2019-03-06T20:56:57.416Z,96500.48
2019-03-06T20:59:29.462Z,96502.23
2019-03-06T21:02:01.533Z,96499.69
2019-03-06T21:04:33.698Z,96490.86
2019-03-06T21:07:06.119Z,96494.47
2019-03-06T21:09:38.214Z,96494.20
2019-03-06T21:12:10.275Z,96491.92
2019-03-06T21:14:42.371Z,96486.55
2019-03-06T21:17:14.421Z,96482.61
2019-03-06T21:19:46.498Z,96486.92
2019-03-06T21:22:18.593Z,96488.75
2019-03-06T21:24:52.251Z,96492.57
2019-03-06T21:27:24.299Z,96497.53
2019-03-06T21:29:56.385Z,96486.70
2019-03-06T21:32:28.725Z,96490.98
2019-03-06T21:35:00.956Z,96485.27
2019-03-06T21:37:32.967Z,96479.80
2019-03-06T21:40:06.303Z,96482.08
2019-03-06T21:42:38.352Z,96487.83
2019-03-06T21:45:10.897Z,96497.98
2019-03-06T21:47:43.053Z,96494.20
2019-03-06T21:50:15.149Z,96495.73
2019-03-06T21:52:47.191Z,96494.06
2019-03-06T21:55:19.287Z,96496.49
2019-03-06T21:57:51.682Z,96493.22
2019-03-06T22:00:23.859Z,96483.94
2019-03-06T22:02:55.893Z,96467.70
2019-03-06T22:05:27.994Z,96472.92
2019-03-06T22:08:00.042Z,96470.45
2019-03-06T22:10:32.111Z,96484.13
2019-03-06T22:13:04.172Z,96466.63
2019-03-06T22:15:36.321Z,96458.52
2019-03-06T22:18:08.356Z,96445.19
2019-03-06T22:20:40.412Z,96427.34
2019-03-06T22:23:12.409Z,96433.81
2019-03-06T22:25:44.457Z,96419.73
2019-03-06T22:28:16.694Z,96425.58
2019-03-06T22:30:49.803Z,96422.38
2019-03-06T22:33:22.181Z,96422.80
2019-03-06T22:35:54.250Z,96420.78
2019-03-06T22:38:26.267Z,96426.62
2019-03-06T22:40:58.262Z,96425.27
2019-03-06T22:43:30.310Z,96423.25
2019-03-06T22:46:02.705Z,96425.50
2019-03-06T22:48:36.886Z,96420.36
2019-03-06T22:51:08.679Z,96420.53
2019-03-06T22:53:40.716Z,96422.17
2019-03-06T22:56:12.764Z,96429.81
2019-03-06T22:58:44.839Z,96429.11
2019-03-06T23:01:23.279Z,96431.20
2019-03-06T23:03:56.732Z,96429.56
2019-03-06T23:06:28.713Z,96428.13
2019-03-06T23:09:00.710Z,96429.42
2019-03-06T23:11:33.823Z,96436.93
2019-03-06T23:14:05.827Z,96434.93
2019-03-06T23:16:37.827Z,96432.14
2019-03-06T23:19:09.981Z,96439.33
2019-03-06T23:21:41.972Z,96439.47
2019-03-06T23:24:14.005Z,96438.61
2019-03-06T23:26:45.954Z,96427.75
2019-03-06T23:29:17.942Z,96424.92
2019-03-06T23:31:50.556Z,96421.06
2019-03-06T23:34:22.649Z,96419.59
2019-03-06T23:36:54.620Z,96411.83
2019-03-06T23:39:26.649Z,96409.48
2019-03-06T23:41:58.957Z,96413.80
2019-03-06T23:44:30.956Z,96411.05
2019-03-06T23:47:06.086Z,96405.38
2019-03-06T23:49:38.081Z,96404.03
2019-03-06T23:52:32.985Z,96395.48
2019-03-06T23:55:05.215Z,96394.87
2019-03-06T23:57:37.167Z,96390.52
